Terminal Aerodrome Forecast
Issued by NWS Chicago, IL

Home | Current Version | Previous Version | Text Only | Print | Product List | Glossary Off
Versions: 1 2 3 4 5 6 7 8 9 10 11 12 13 14 15 16 17 18 19 20 21 22 23 24 25

415
FTUS43 KLOT 280303 AAA
TAFRFD
TAF AMD
KRFD 280303Z 2803/2824 14007KT P6SM SCT060 BKN120 OVC250
     FM280600 16010KT 4SM -SHRA SCT015 BKN025
     FM281000 17010KT 4SM -RADZ BR OVC006
     FM281500 19012G17KT P6SM SCT008 BKN015
     FM282000 20013G20KT P6SM VCSH BKN020 PROB30 2822/2824 4SM -TSRA
      BKN015CB=

USA.gov is the U.S. government's official web portal to all federal, state and local government web resources and services.